Jamestown Regional Airport

Current Flights

Departures
Arrivals
Info
Name: Jamestown Regional Airport
Identifier:  JMS/KJMS
Local Time:  16. Jun 01:51
City
Flights per Day
5 flights
Distance: 446km (277mi)
Punctuality
84% (0 flights per day delayed)
Delay Average: 7 minutes
Current Weather
 14 C (Humidity: 100%)
  5kt (9km/h / 5mph) from 130°
  Overcast at 200 feet (60 meter)
  0km (0 mi.)
 Mist
 METAR KJMS 160612Z AUTO 13005KT 2 1/2SM BR OVC002 14/14 A2982 RMK AO2 T01390139

Current Delays

Departures
N/A
Arrivals
N/A

Destinations

Top Destinations
Airport Flights
per week
Seats
per week
  Devils Lake (DVL) 23 978 3 139
  Denver (DEN) 19 978 2 139
  Fargo (FAR) 5 - 0 0
  Dickinson (DIK) 0 - 0 0
  Rochester (RST) 0 - 0 0
  Minot (MOT) 0 - 0 0

Airlines & Planes

Top Airlines
Airline Flights
per Day
Seats
per Day
  SkyWest Airlines 5 269
Bemidji Airlines 1 -
  Britt Airways 0 10
  Nolinor Aviation 0 -
Top Plane Types
Model Flights Seats
Bombardier CRJ200 5.4/day 269/day 269.46666666666664
Beech 65-B80 1.3/day - 0
Beech E90 King Air 0.1/day - 0
Bombardier Challenger 600 0.1/day 6/day 6.666666666666667
Beech B200 Super King Air 0.1/day - 0
Cessna C172 0.0/day - 0
Fairchild SA227-DC Metro 23 0.0/day - 0